sensor_id;sensor_type;location;lat;lon;timestamp;P1;durP1;ratioP1;P2;durP2;ratioP2
27305;SDS011;14792;50.886;6.468;2022-12-20T00:00:46;2.62;;;1.10;;
27305;SDS011;14792;50.886;6.468;2022-12-20T00:03:51;2.92;;;1.50;;
27305;SDS011;14792;50.886;6.468;2022-12-20T00:06:51;3.08;;;1.35;;
27305;SDS011;14792;50.886;6.468;2022-12-20T00:09:53;5.12;;;1.60;;
27305;SDS011;14792;50.886;6.468;2022-12-20T00:12:55;2.72;;;1.27;;
27305;SDS011;14792;50.886;6.468;2022-12-20T00:16:03;2.37;;;1.52;;
27305;SDS011;14792;50.886;6.468;2022-12-20T00:19:05;2.83;;;1.20;;
27305;SDS011;14792;50.886;6.468;2022-12-20T00:22:05;2.22;;;1.35;;
27305;SDS011;14792;50.886;6.468;2022-12-20T00:25:07;3.40;;;1.37;;
27305;SDS011;14792;50.886;6.468;2022-12-20T00:28:09;4.53;;;1.50;;
27305;SDS011;14792;50.886;6.468;2022-12-20T00:31:11;3.87;;;1.80;;
27305;SDS011;14792;50.886;6.468;2022-12-20T00:34:12;4.62;;;1.52;;
27305;SDS011;14792;50.886;6.468;2022-12-20T00:37:14;3.42;;;1.30;;
27305;SDS011;14792;50.886;6.468;2022-12-20T00:40:15;6.65;;;1.67;;
27305;SDS011;14792;50.886;6.468;2022-12-20T00:43:17;2.58;;;1.70;;
27305;SDS011;14792;50.886;6.468;2022-12-20T00:46:19;2.47;;;1.40;;
27305;SDS011;14792;50.886;6.468;2022-12-20T00:49:20;3.27;;;1.60;;
27305;SDS011;14792;50.886;6.468;2022-12-20T00:52:22;3.00;;;1.30;;
27305;SDS011;14792;50.886;6.468;2022-12-20T00:55:23;3.12;;;1.32;;
27305;SDS011;14792;50.886;6.468;2022-12-20T00:58:25;2.95;;;1.42;;
27305;SDS011;14792;50.886;6.468;2022-12-20T01:01:30;3.30;;;1.52;;
27305;SDS011;14792;50.886;6.468;2022-12-20T01:04:31;2.33;;;1.30;;
27305;SDS011;14792;50.886;6.468;2022-12-20T01:07:32;2.87;;;1.70;;
27305;SDS011;14792;50.886;6.468;2022-12-20T01:10:34;3.98;;;1.72;;
27305;SDS011;14792;50.886;6.468;2022-12-20T01:13:36;4.80;;;1.70;;
27305;SDS011;14792;50.886;6.468;2022-12-20T01:16:39;1.98;;;1.27;;
27305;SDS011;14792;50.886;6.468;2022-12-20T01:19:42;1.90;;;1.50;;
27305;SDS011;14792;50.886;6.468;2022-12-20T01:22:44;3.58;;;1.85;;
27305;SDS011;14792;50.886;6.468;2022-12-20T01:25:45;2.85;;;1.60;;
27305;SDS011;14792;50.886;6.468;2022-12-20T01:28:47;4.35;;;1.50;;
27305;SDS011;14792;50.886;6.468;2022-12-20T01:31:49;3.65;;;1.52;;
27305;SDS011;14792;50.886;6.468;2022-12-20T01:34:50;2.95;;;1.47;;
27305;SDS011;14792;50.886;6.468;2022-12-20T01:37:52;3.05;;;1.60;;
27305;SDS011;14792;50.886;6.468;2022-12-20T01:40:54;2.92;;;1.70;;
27305;SDS011;14792;50.886;6.468;2022-12-20T01:43:59;3.00;;;1.60;;
27305;SDS011;14792;50.886;6.468;2022-12-20T01:46:59;9.18;;;1.70;;
27305;SDS011;14792;50.886;6.468;2022-12-20T01:50:01;4.28;;;1.70;;
27305;SDS011;14792;50.886;6.468;2022-12-20T01:53:03;3.83;;;1.70;;
27305;SDS011;14792;50.886;6.468;2022-12-20T01:56:04;7.33;;;1.90;;
27305;SDS011;14792;50.886;6.468;2022-12-20T01:59:06;2.52;;;1.52;;
27305;SDS011;14792;50.886;6.468;2022-12-20T02:02:10;4.10;;;1.65;;
27305;SDS011;14792;50.886;6.468;2022-12-20T02:05:12;4.72;;;1.90;;
27305;SDS011;14792;50.886;6.468;2022-12-20T02:08:15;4.37;;;1.60;;
27305;SDS011;14792;50.886;6.468;2022-12-20T02:11:22;3.90;;;2.00;;
27305;SDS011;14792;50.886;6.468;2022-12-20T02:14:35;4.15;;;1.98;;
27305;SDS011;14792;50.886;6.468;2022-12-20T02:21:00;3.52;;;1.67;;
27305;SDS011;14792;50.886;6.468;2022-12-20T02:27:29;4.40;;;1.90;;
27305;SDS011;14792;50.886;6.468;2022-12-20T02:30:33;3.25;;;1.67;;
27305;SDS011;14792;50.886;6.468;2022-12-20T02:33:34;7.20;;;2.27;;
27305;SDS011;14792;50.886;6.468;2022-12-20T02:36:35;5.10;;;2.12;;
27305;SDS011;14792;50.886;6.468;2022-12-20T02:39:38;3.77;;;2.00;;
27305;SDS011;14792;50.886;6.468;2022-12-20T02:42:40;3.77;;;2.00;;
27305;SDS011;14792;50.886;6.468;2022-12-20T02:45:42;4.03;;;1.82;;
27305;SDS011;14792;50.886;6.468;2022-12-20T02:48:43;3.05;;;1.90;;
27305;SDS011;14792;50.886;6.468;2022-12-20T02:51:46;4.08;;;2.30;;
27305;SDS011;14792;50.886;6.468;2022-12-20T02:54:47;4.97;;;2.17;;
27305;SDS011;14792;50.886;6.468;2022-12-20T02:57:53;3.08;;;1.80;;
27305;SDS011;14792;50.886;6.468;2022-12-20T03:00:52;3.00;;;1.80;;
27305;SDS011;14792;50.886;6.468;2022-12-20T03:03:54;3.50;;;2.02;;
27305;SDS011;14792;50.886;6.468;2022-12-20T03:07:02;4.58;;;2.00;;
27305;SDS011;14792;50.886;6.468;2022-12-20T03:10:03;3.50;;;2.00;;
27305;SDS011;14792;50.886;6.468;2022-12-20T03:13:05;4.03;;;2.30;;
27305;SDS011;14792;50.886;6.468;2022-12-20T03:16:06;4.50;;;2.35;;
27305;SDS011;14792;50.886;6.468;2022-12-20T03:19:11;4.20;;;2.00;;
27305;SDS011;14792;50.886;6.468;2022-12-20T03:22:13;4.08;;;2.00;;
27305;SDS011;14792;50.886;6.468;2022-12-20T03:25:14;3.25;;;2.00;;
27305;SDS011;14792;50.886;6.468;2022-12-20T03:28:16;5.40;;;1.60;;
27305;SDS011;14792;50.886;6.468;2022-12-20T03:31:18;3.42;;;1.95;;
27305;SDS011;14792;50.886;6.468;2022-12-20T03:34:19;3.08;;;1.87;;
27305;SDS011;14792;50.886;6.468;2022-12-20T03:37:21;10.90;;;2.62;;
27305;SDS011;14792;50.886;6.468;2022-12-20T03:40:22;8.28;;;2.08;;
27305;SDS011;14792;50.886;6.468;2022-12-20T03:43:24;4.80;;;2.00;;
27305;SDS011;14792;50.886;6.468;2022-12-20T03:46:25;6.95;;;2.40;;
27305;SDS011;14792;50.886;6.468;2022-12-20T03:49:27;2.12;;;1.57;;
27305;SDS011;14792;50.886;6.468;2022-12-20T03:52:29;3.35;;;2.02;;
27305;SDS011;14792;50.886;6.468;2022-12-20T03:55:30;3.85;;;2.50;;
27305;SDS011;14792;50.886;6.468;2022-12-20T03:58:32;5.05;;;2.12;;
27305;SDS011;14792;50.886;6.468;2022-12-20T04:01:33;6.72;;;3.22;;
27305;SDS011;14792;50.886;6.468;2022-12-20T04:04:35;5.92;;;3.02;;
27305;SDS011;14792;50.886;6.468;2022-12-20T04:07:37;6.85;;;3.25;;
27305;SDS011;14792;50.886;6.468;2022-12-20T04:10:39;5.47;;;3.17;;
27305;SDS011;14792;50.886;6.468;2022-12-20T04:13:41;7.33;;;2.67;;
27305;SDS011;14792;50.886;6.468;2022-12-20T04:16:42;6.15;;;2.37;;
27305;SDS011;14792;50.886;6.468;2022-12-20T04:19:43;5.12;;;2.27;;
27305;SDS011;14792;50.886;6.468;2022-12-20T04:22:45;3.75;;;2.25;;
27305;SDS011;14792;50.886;6.468;2022-12-20T04:25:46;7.25;;;2.33;;
27305;SDS011;14792;50.886;6.468;2022-12-20T04:28:48;4.00;;;2.00;;
27305;SDS011;14792;50.886;6.468;2022-12-20T04:31:50;3.85;;;2.05;;
27305;SDS011;14792;50.886;6.468;2022-12-20T04:34:51;5.05;;;2.17;;
27305;SDS011;14792;50.886;6.468;2022-12-20T04:37:53;3.62;;;2.00;;
27305;SDS011;14792;50.886;6.468;2022-12-20T04:40:54;5.87;;;2.15;;
27305;SDS011;14792;50.886;6.468;2022-12-20T04:43:56;4.25;;;2.20;;
27305;SDS011;14792;50.886;6.468;2022-12-20T04:46:58;4.50;;;2.17;;
27305;SDS011;14792;50.886;6.468;2022-12-20T04:49:59;6.95;;;2.47;;
27305;SDS011;14792;50.886;6.468;2022-12-20T04:53:01;2.77;;;1.67;;
27305;SDS011;14792;50.886;6.468;2022-12-20T04:56:21;3.45;;;1.92;;
27305;SDS011;14792;50.886;6.468;2022-12-20T04:59:22;6.10;;;2.30;;
27305;SDS011;14792;50.886;6.468;2022-12-20T05:02:23;5.28;;;2.27;;
27305;SDS011;14792;50.886;6.468;2022-12-20T05:05:25;4.72;;;1.90;;
27305;SDS011;14792;50.886;6.468;2022-12-20T05:08:26;5.45;;;1.67;;
27305;SDS011;14792;50.886;6.468;2022-12-20T05:11:28;3.15;;;2.00;;
27305;SDS011;14792;50.886;6.468;2022-12-20T05:14:30;5.85;;;2.20;;
27305;SDS011;14792;50.886;6.468;2022-12-20T05:17:31;2.87;;;1.90;;
27305;SDS011;14792;50.886;6.468;2022-12-20T05:20:33;5.17;;;2.30;;
27305;SDS011;14792;50.886;6.468;2022-12-20T05:23:34;3.58;;;2.35;;
27305;SDS011;14792;50.886;6.468;2022-12-20T05:26:54;3.67;;;2.10;;
27305;SDS011;14792;50.886;6.468;2022-12-20T05:29:56;7.87;;;3.22;;
27305;SDS011;14792;50.886;6.468;2022-12-20T05:32:57;4.08;;;2.70;;
27305;SDS011;14792;50.886;6.468;2022-12-20T05:35:59;4.53;;;2.12;;
27305;SDS011;14792;50.886;6.468;2022-12-20T05:39:00;4.53;;;2.02;;
27305;SDS011;14792;50.886;6.468;2022-12-20T05:42:02;4.55;;;2.22;;
27305;SDS011;14792;50.886;6.468;2022-12-20T05:45:04;13.88;;;6.17;;
27305;SDS011;14792;50.886;6.468;2022-12-20T05:48:05;12.00;;;5.37;;
27305;SDS011;14792;50.886;6.468;2022-12-20T05:51:07;4.97;;;2.55;;
27305;SDS011;14792;50.886;6.468;2022-12-20T05:54:09;5.53;;;3.12;;
27305;SDS011;14792;50.886;6.468;2022-12-20T05:57:11;5.70;;;2.05;;
27305;SDS011;14792;50.886;6.468;2022-12-20T06:00:12;18.32;;;7.95;;
27305;SDS011;14792;50.886;6.468;2022-12-20T06:03:14;7.67;;;2.90;;
27305;SDS011;14792;50.886;6.468;2022-12-20T06:06:15;5.80;;;3.05;;
27305;SDS011;14792;50.886;6.468;2022-12-20T06:09:17;8.23;;;2.75;;
27305;SDS011;14792;50.886;6.468;2022-12-20T06:12:19;5.22;;;1.98;;
27305;SDS011;14792;50.886;6.468;2022-12-20T06:15:20;6.03;;;1.60;;
27305;SDS011;14792;50.886;6.468;2022-12-20T06:18:22;5.22;;;2.98;;
27305;SDS011;14792;50.886;6.468;2022-12-20T06:21:23;7.58;;;3.45;;
27305;SDS011;14792;50.886;6.468;2022-12-20T06:24:25;3.70;;;2.12;;
27305;SDS011;14792;50.886;6.468;2022-12-20T06:27:26;4.87;;;1.87;;
27305;SDS011;14792;50.886;6.468;2022-12-20T06:30:28;7.78;;;2.30;;
27305;SDS011;14792;50.886;6.468;2022-12-20T06:33:30;6.60;;;2.58;;
27305;SDS011;14792;50.886;6.468;2022-12-20T06:36:31;6.75;;;1.92;;
27305;SDS011;14792;50.886;6.468;2022-12-20T06:39:33;6.12;;;2.02;;
27305;SDS011;14792;50.886;6.468;2022-12-20T06:42:34;4.28;;;1.67;;
27305;SDS011;14792;50.886;6.468;2022-12-20T06:45:36;3.05;;;1.60;;
27305;SDS011;14792;50.886;6.468;2022-12-20T06:48:38;2.72;;;1.50;;
27305;SDS011;14792;50.886;6.468;2022-12-20T06:51:41;2.67;;;1.40;;
27305;SDS011;14792;50.886;6.468;2022-12-20T06:54:42;6.03;;;1.80;;
27305;SDS011;14792;50.886;6.468;2022-12-20T06:57:44;3.85;;;1.35;;
27305;SDS011;14792;50.886;6.468;2022-12-20T07:00:46;4.53;;;1.75;;
27305;SDS011;14792;50.886;6.468;2022-12-20T07:03:47;4.10;;;1.55;;
27305;SDS011;14792;50.886;6.468;2022-12-20T07:06:49;2.42;;;1.40;;
27305;SDS011;14792;50.886;6.468;2022-12-20T07:09:50;6.37;;;1.50;;
27305;SDS011;14792;50.886;6.468;2022-12-20T07:12:52;5.33;;;1.85;;
27305;SDS011;14792;50.886;6.468;2022-12-20T07:15:57;8.60;;;2.42;;
27305;SDS011;14792;50.886;6.468;2022-12-20T07:18:58;3.27;;;1.52;;
27305;SDS011;14792;50.886;6.468;2022-12-20T07:22:00;3.40;;;1.70;;
27305;SDS011;14792;50.886;6.468;2022-12-20T07:25:02;4.60;;;2.22;;
27305;SDS011;14792;50.886;6.468;2022-12-20T07:28:03;4.22;;;1.90;;
27305;SDS011;14792;50.886;6.468;2022-12-20T07:31:05;5.70;;;1.50;;
27305;SDS011;14792;50.886;6.468;2022-12-20T07:34:07;2.08;;;1.25;;
27305;SDS011;14792;50.886;6.468;2022-12-20T07:37:08;3.33;;;1.70;;
27305;SDS011;14792;50.886;6.468;2022-12-20T07:40:11;2.30;;;1.35;;
27305;SDS011;14792;50.886;6.468;2022-12-20T07:43:12;3.33;;;1.27;;
27305;SDS011;14792;50.886;6.468;2022-12-20T07:46:14;3.17;;;1.80;;
27305;SDS011;14792;50.886;6.468;2022-12-20T07:49:15;3.42;;;1.40;;
27305;SDS011;14792;50.886;6.468;2022-12-20T07:52:18;3.10;;;1.80;;
27305;SDS011;14792;50.886;6.468;2022-12-20T07:55:19;5.08;;;1.80;;
27305;SDS011;14792;50.886;6.468;2022-12-20T07:58:20;3.77;;;2.05;;
27305;SDS011;14792;50.886;6.468;2022-12-20T08:01:22;6.80;;;2.45;;
27305;SDS011;14792;50.886;6.468;2022-12-20T08:04:24;4.25;;;1.57;;
27305;SDS011;14792;50.886;6.468;2022-12-20T08:07:26;4.60;;;1.57;;
27305;SDS011;14792;50.886;6.468;2022-12-20T08:10:27;5.30;;;2.02;;
27305;SDS011;14792;50.886;6.468;2022-12-20T08:13:28;3.27;;;1.60;;
27305;SDS011;14792;50.886;6.468;2022-12-20T08:16:30;6.67;;;2.52;;
27305;SDS011;14792;50.886;6.468;2022-12-20T08:19:31;5.87;;;2.67;;
27305;SDS011;14792;50.886;6.468;2022-12-20T08:22:33;6.22;;;2.40;;
27305;SDS011;14792;50.886;6.468;2022-12-20T08:25:35;2.77;;;1.55;;
27305;SDS011;14792;50.886;6.468;2022-12-20T08:28:36;4.37;;;2.10;;
27305;SDS011;14792;50.886;6.468;2022-12-20T08:31:38;9.60;;;4.20;;
27305;SDS011;14792;50.886;6.468;2022-12-20T08:34:40;8.85;;;3.25;;
27305;SDS011;14792;50.886;6.468;2022-12-20T08:37:42;4.75;;;1.60;;
27305;SDS011;14792;50.886;6.468;2022-12-20T08:40:44;4.22;;;1.55;;
27305;SDS011;14792;50.886;6.468;2022-12-20T08:43:46;5.17;;;2.20;;
27305;SDS011;14792;50.886;6.468;2022-12-20T08:46:48;2.67;;;1.20;;
27305;SDS011;14792;50.886;6.468;2022-12-20T08:49:49;3.15;;;1.40;;
27305;SDS011;14792;50.886;6.468;2022-12-20T08:52:51;9.23;;;3.98;;
27305;SDS011;14792;50.886;6.468;2022-12-20T08:55:52;7.05;;;3.72;;
27305;SDS011;14792;50.886;6.468;2022-12-20T08:58:54;4.78;;;2.80;;
27305;SDS011;14792;50.886;6.468;2022-12-20T09:01:56;3.10;;;1.60;;
27305;SDS011;14792;50.886;6.468;2022-12-20T09:04:57;4.78;;;1.90;;
27305;SDS011;14792;50.886;6.468;2022-12-20T09:07:59;2.55;;;1.55;;
27305;SDS011;14792;50.886;6.468;2022-12-20T09:11:07;5.75;;;1.87;;
27305;SDS011;14792;50.886;6.468;2022-12-20T09:14:14;2.12;;;1.35;;
27305;SDS011;14792;50.886;6.468;2022-12-20T09:17:15;5.85;;;1.77;;
27305;SDS011;14792;50.886;6.468;2022-12-20T09:20:17;4.50;;;1.60;;
27305;SDS011;14792;50.886;6.468;2022-12-20T09:23:18;4.22;;;1.60;;
27305;SDS011;14792;50.886;6.468;2022-12-20T09:26:20;4.25;;;1.20;;
27305;SDS011;14792;50.886;6.468;2022-12-20T09:29:21;4.15;;;1.10;;
27305;SDS011;14792;50.886;6.468;2022-12-20T09:32:23;2.00;;;1.10;;
27305;SDS011;14792;50.886;6.468;2022-12-20T09:35:25;4.80;;;1.45;;
27305;SDS011;14792;50.886;6.468;2022-12-20T09:38:27;2.10;;;1.27;;
27305;SDS011;14792;50.886;6.468;2022-12-20T09:44:39;3.40;;;1.32;;
27305;SDS011;14792;50.886;6.468;2022-12-20T09:47:42;3.65;;;1.55;;
27305;SDS011;14792;50.886;6.468;2022-12-20T09:57:15;3.67;;;1.40;;
27305;SDS011;14792;50.886;6.468;2022-12-20T10:00:21;3.83;;;1.80;;
27305;SDS011;14792;50.886;6.468;2022-12-20T10:03:28;3.70;;;1.40;;
27305;SDS011;14792;50.886;6.468;2022-12-20T10:09:59;4.12;;;1.65;;
27305;SDS011;14792;50.886;6.468;2022-12-20T10:20:27;10.32;;;5.90;;
27305;SDS011;14792;50.886;6.468;2022-12-20T10:22:50;7.17;;;2.80;;
27305;SDS011;14792;50.886;6.468;2022-12-20T10:25:50;4.35;;;3.20;;
27305;SDS011;14792;50.886;6.468;2022-12-20T10:28:51;5.33;;;2.17;;
27305;SDS011;14792;50.886;6.468;2022-12-20T10:31:53;5.50;;;1.95;;
27305;SDS011;14792;50.886;6.468;2022-12-20T10:35:13;4.00;;;1.70;;
27305;SDS011;14792;50.886;6.468;2022-12-20T10:38:03;5.10;;;1.60;;
27305;SDS011;14792;50.886;6.468;2022-12-20T10:41:10;3.60;;;1.40;;
27305;SDS011;14792;50.886;6.468;2022-12-20T10:50:41;21.10;;;4.25;;
27305;SDS011;14792;50.886;6.468;2022-12-20T10:53:55;9.53;;;2.05;;
27305;SDS011;14792;50.886;6.468;2022-12-20T10:57:07;4.25;;;1.82;;
27305;SDS011;14792;50.886;6.468;2022-12-20T11:00:04;2.67;;;1.85;;
27305;SDS011;14792;50.886;6.468;2022-12-20T11:03:12;5.08;;;1.77;;
27305;SDS011;14792;50.886;6.468;2022-12-20T11:06:14;3.35;;;1.50;;
27305;SDS011;14792;50.886;6.468;2022-12-20T11:09:20;4.05;;;1.95;;
27305;SDS011;14792;50.886;6.468;2022-12-20T11:12:21;7.62;;;1.82;;
27305;SDS011;14792;50.886;6.468;2022-12-20T11:15:24;4.75;;;1.65;;
27305;SDS011;14792;50.886;6.468;2022-12-20T11:28:50;3.45;;;2.10;;
27305;SDS011;14792;50.886;6.468;2022-12-20T11:38:57;7.40;;;2.10;;
27305;SDS011;14792;50.886;6.468;2022-12-20T11:45:20;5.15;;;1.70;;
27305;SDS011;14792;50.886;6.468;2022-12-20T11:54:47;5.35;;;1.85;;
27305;SDS011;14792;50.886;6.468;2022-12-20T11:57:55;2.98;;;1.30;;
27305;SDS011;14792;50.886;6.468;2022-12-20T12:01:21;4.33;;;1.82;;
27305;SDS011;14792;50.886;6.468;2022-12-20T12:04:13;7.85;;;3.15;;
27305;SDS011;14792;50.886;6.468;2022-12-20T12:07:17;4.20;;;1.98;;
27305;SDS011;14792;50.886;6.468;2022-12-20T12:13:23;7.33;;;1.75;;
27305;SDS011;14792;50.886;6.468;2022-12-20T12:16:27;5.00;;;1.40;;
27305;SDS011;14792;50.886;6.468;2022-12-20T12:19:28;2.98;;;1.65;;
27305;SDS011;14792;50.886;6.468;2022-12-20T12:22:31;6.55;;;1.92;;
27305;SDS011;14792;50.886;6.468;2022-12-20T12:25:31;3.55;;;1.92;;
27305;SDS011;14792;50.886;6.468;2022-12-20T12:28:33;4.42;;;1.90;;
27305;SDS011;14792;50.886;6.468;2022-12-20T12:31:38;2.83;;;1.67;;
27305;SDS011;14792;50.886;6.468;2022-12-20T12:44:47;1.82;;;1.32;;
27305;SDS011;14792;50.886;6.468;2022-12-20T12:47:22;3.60;;;1.75;;
27305;SDS011;14792;50.886;6.468;2022-12-20T12:50:23;3.77;;;1.57;;
27305;SDS011;14792;50.886;6.468;2022-12-20T12:56:49;5.05;;;1.52;;
27305;SDS011;14792;50.886;6.468;2022-12-20T12:59:53;12.35;;;5.97;;
27305;SDS011;14792;50.886;6.468;2022-12-20T13:02:54;3.67;;;2.02;;
27305;SDS011;14792;50.886;6.468;2022-12-20T13:05:56;7.90;;;3.67;;
27305;SDS011;14792;50.886;6.468;2022-12-20T13:11:59;3.72;;;2.47;;
27305;SDS011;14792;50.886;6.468;2022-12-20T13:18:21;5.72;;;2.50;;
27305;SDS011;14792;50.886;6.468;2022-12-20T13:21:27;10.18;;;4.45;;
27305;SDS011;14792;50.886;6.468;2022-12-20T13:27:40;4.35;;;1.80;;
27305;SDS011;14792;50.886;6.468;2022-12-20T13:30:42;4.53;;;2.27;;
27305;SDS011;14792;50.886;6.468;2022-12-20T13:33:48;1.82;;;1.10;;
27305;SDS011;14792;50.886;6.468;2022-12-20T13:36:50;4.42;;;1.30;;
27305;SDS011;14792;50.886;6.468;2022-12-20T13:39:52;4.28;;;1.27;;
27305;SDS011;14792;50.886;6.468;2022-12-20T13:42:53;3.50;;;1.62;;
27305;SDS011;14792;50.886;6.468;2022-12-20T13:49:14;3.58;;;1.37;;
27305;SDS011;14792;50.886;6.468;2022-12-20T13:52:20;4.72;;;1.52;;
27305;SDS011;14792;50.886;6.468;2022-12-20T13:55:26;3.05;;;1.52;;
27305;SDS011;14792;50.886;6.468;2022-12-20T13:58:26;4.53;;;1.30;;
27305;SDS011;14792;50.886;6.468;2022-12-20T14:01:27;3.40;;;1.40;;
27305;SDS011;14792;50.886;6.468;2022-12-20T14:04:38;3.90;;;1.25;;
27305;SDS011;14792;50.886;6.468;2022-12-20T14:07:39;3.08;;;1.32;;
27305;SDS011;14792;50.886;6.468;2022-12-20T14:10:41;3.92;;;1.80;;
27305;SDS011;14792;50.886;6.468;2022-12-20T14:13:56;4.45;;;1.72;;
27305;SDS011;14792;50.886;6.468;2022-12-20T14:17:13;5.90;;;1.82;;
27305;SDS011;14792;50.886;6.468;2022-12-20T14:20:16;4.45;;;1.90;;
27305;SDS011;14792;50.886;6.468;2022-12-20T14:23:21;6.03;;;1.90;;
27305;SDS011;14792;50.886;6.468;2022-12-20T14:26:23;7.45;;;2.00;;
27305;SDS011;14792;50.886;6.468;2022-12-20T14:29:25;6.05;;;1.80;;
27305;SDS011;14792;50.886;6.468;2022-12-20T14:32:25;4.58;;;2.00;;
27305;SDS011;14792;50.886;6.468;2022-12-20T14:35:26;5.10;;;2.00;;
27305;SDS011;14792;50.886;6.468;2022-12-20T14:38:29;2.95;;;1.50;;
27305;SDS011;14792;50.886;6.468;2022-12-20T14:44:34;5.03;;;1.52;;
27305;SDS011;14792;50.886;6.468;2022-12-20T14:47:35;2.90;;;1.20;;
27305;SDS011;14792;50.886;6.468;2022-12-20T14:50:37;4.85;;;2.08;;
27305;SDS011;14792;50.886;6.468;2022-12-20T14:53:39;3.20;;;1.40;;
27305;SDS011;14792;50.886;6.468;2022-12-20T14:59:42;3.00;;;1.20;;
27305;SDS011;14792;50.886;6.468;2022-12-20T15:06:00;5.33;;;1.50;;
27305;SDS011;14792;50.886;6.468;2022-12-20T15:09:01;2.50;;;1.30;;
27305;SDS011;14792;50.886;6.468;2022-12-20T15:12:03;3.72;;;1.62;;
27305;SDS011;14792;50.886;6.468;2022-12-20T15:15:04;3.20;;;1.25;;
27305;SDS011;14792;50.886;6.468;2022-12-20T15:18:13;7.42;;;2.00;;
27305;SDS011;14792;50.886;6.468;2022-12-20T15:21:36;3.10;;;1.22;;
27305;SDS011;14792;50.886;6.468;2022-12-20T15:24:16;6.03;;;1.60;;
27305;SDS011;14792;50.886;6.468;2022-12-20T15:27:17;6.22;;;1.65;;
27305;SDS011;14792;50.886;6.468;2022-12-20T15:30:18;2.52;;;1.37;;
27305;SDS011;14792;50.886;6.468;2022-12-20T15:33:24;2.15;;;1.45;;
27305;SDS011;14792;50.886;6.468;2022-12-20T15:36:23;4.67;;;1.80;;
27305;SDS011;14792;50.886;6.468;2022-12-20T15:39:28;4.53;;;1.87;;
27305;SDS011;14792;50.886;6.468;2022-12-20T15:42:30;5.80;;;2.90;;
27305;SDS011;14792;50.886;6.468;2022-12-20T15:45:31;7.20;;;3.27;;
27305;SDS011;14792;50.886;6.468;2022-12-20T15:48:33;7.65;;;3.35;;
27305;SDS011;14792;50.886;6.468;2022-12-20T15:51:35;3.92;;;1.98;;
27305;SDS011;14792;50.886;6.468;2022-12-20T15:54:36;3.47;;;1.75;;
27305;SDS011;14792;50.886;6.468;2022-12-20T15:57:38;4.30;;;2.02;;
27305;SDS011;14792;50.886;6.468;2022-12-20T16:00:41;2.58;;;1.37;;
27305;SDS011;14792;50.886;6.468;2022-12-20T16:03:42;3.27;;;1.50;;
27305;SDS011;14792;50.886;6.468;2022-12-20T16:06:45;4.83;;;2.10;;
27305;SDS011;14792;50.886;6.468;2022-12-20T16:09:45;5.37;;;2.30;;
27305;SDS011;14792;50.886;6.468;2022-12-20T16:12:47;3.90;;;2.05;;
27305;SDS011;14792;50.886;6.468;2022-12-20T16:15:49;5.00;;;2.95;;
27305;SDS011;14792;50.886;6.468;2022-12-20T16:18:50;7.95;;;4.17;;
27305;SDS011;14792;50.886;6.468;2022-12-20T16:21:52;8.78;;;5.20;;
27305;SDS011;14792;50.886;6.468;2022-12-20T16:24:53;3.75;;;2.70;;
27305;SDS011;14792;50.886;6.468;2022-12-20T16:27:55;6.30;;;3.30;;
27305;SDS011;14792;50.886;6.468;2022-12-20T16:30:57;11.20;;;5.67;;
27305;SDS011;14792;50.886;6.468;2022-12-20T16:33:59;9.35;;;4.70;;
27305;SDS011;14792;50.886;6.468;2022-12-20T16:37:00;6.62;;;3.10;;
27305;SDS011;14792;50.886;6.468;2022-12-20T16:40:01;6.33;;;2.52;;
27305;SDS011;14792;50.886;6.468;2022-12-20T16:43:03;6.60;;;2.90;;
27305;SDS011;14792;50.886;6.468;2022-12-20T16:46:05;9.00;;;2.50;;
27305;SDS011;14792;50.886;6.468;2022-12-20T16:49:07;23.38;;;10.30;;
27305;SDS011;14792;50.886;6.468;2022-12-20T16:52:13;25.68;;;11.70;;
27305;SDS011;14792;50.886;6.468;2022-12-20T16:55:13;11.15;;;5.15;;
27305;SDS011;14792;50.886;6.468;2022-12-20T16:58:20;15.38;;;6.90;;
27305;SDS011;14792;50.886;6.468;2022-12-20T17:01:23;8.80;;;4.50;;
27305;SDS011;14792;50.886;6.468;2022-12-20T17:04:24;8.00;;;4.15;;
27305;SDS011;14792;50.886;6.468;2022-12-20T17:07:25;6.90;;;3.50;;
27305;SDS011;14792;50.886;6.468;2022-12-20T17:10:27;11.57;;;4.65;;
27305;SDS011;14792;50.886;6.468;2022-12-20T17:13:28;12.85;;;4.60;;
27305;SDS011;14792;50.886;6.468;2022-12-20T17:16:30;7.28;;;3.77;;
27305;SDS011;14792;50.886;6.468;2022-12-20T17:19:32;6.67;;;4.42;;
27305;SDS011;14792;50.886;6.468;2022-12-20T17:22:33;8.23;;;4.42;;
27305;SDS011;14792;50.886;6.468;2022-12-20T17:25:35;10.63;;;3.87;;
27305;SDS011;14792;50.886;6.468;2022-12-20T17:28:36;8.75;;;4.62;;
27305;SDS011;14792;50.886;6.468;2022-12-20T17:31:39;13.48;;;8.08;;
27305;SDS011;14792;50.886;6.468;2022-12-20T17:34:39;9.23;;;5.03;;
27305;SDS011;14792;50.886;6.468;2022-12-20T17:37:41;5.65;;;3.10;;
27305;SDS011;14792;50.886;6.468;2022-12-20T17:40:43;6.12;;;3.50;;
27305;SDS011;14792;50.886;6.468;2022-12-20T17:43:44;8.15;;;3.58;;
27305;SDS011;14792;50.886;6.468;2022-12-20T17:46:46;4.75;;;3.40;;
27305;SDS011;14792;50.886;6.468;2022-12-20T17:49:47;6.45;;;3.27;;
27305;SDS011;14792;50.886;6.468;2022-12-20T17:52:49;4.80;;;2.85;;
27305;SDS011;14792;50.886;6.468;2022-12-20T17:55:51;5.30;;;3.52;;
27305;SDS011;14792;50.886;6.468;2022-12-20T17:58:53;9.53;;;5.65;;
27305;SDS011;14792;50.886;6.468;2022-12-20T18:01:54;8.25;;;4.70;;
27305;SDS011;14792;50.886;6.468;2022-12-20T18:04:55;13.85;;;5.47;;
27305;SDS011;14792;50.886;6.468;2022-12-20T18:07:57;9.63;;;5.10;;
27305;SDS011;14792;50.886;6.468;2022-12-20T18:10:59;8.93;;;5.87;;
27305;SDS011;14792;50.886;6.468;2022-12-20T18:14:00;7.72;;;5.20;;
27305;SDS011;14792;50.886;6.468;2022-12-20T18:17:02;8.45;;;4.92;;
27305;SDS011;14792;50.886;6.468;2022-12-20T18:20:07;17.00;;;11.10;;
27305;SDS011;14792;50.886;6.468;2022-12-20T18:23:08;12.33;;;9.15;;
27305;SDS011;14792;50.886;6.468;2022-12-20T18:26:11;14.47;;;9.60;;
27305;SDS011;14792;50.886;6.468;2022-12-20T18:29:11;16.65;;;10.78;;
27305;SDS011;14792;50.886;6.468;2022-12-20T18:32:13;17.82;;;9.83;;
27305;SDS011;14792;50.886;6.468;2022-12-20T18:35:15;27.25;;;13.55;;
27305;SDS011;14792;50.886;6.468;2022-12-20T18:38:16;20.77;;;10.55;;
27305;SDS011;14792;50.886;6.468;2022-12-20T18:41:21;18.57;;;10.38;;
27305;SDS011;14792;50.886;6.468;2022-12-20T18:44:19;24.35;;;14.28;;
27305;SDS011;14792;50.886;6.468;2022-12-20T18:47:21;15.72;;;9.33;;
27305;SDS011;14792;50.886;6.468;2022-12-20T18:50:23;13.22;;;6.95;;
27305;SDS011;14792;50.886;6.468;2022-12-20T18:53:24;12.85;;;7.92;;
27305;SDS011;14792;50.886;6.468;2022-12-20T18:56:27;5.40;;;3.47;;
27305;SDS011;14792;50.886;6.468;2022-12-20T18:59:27;4.42;;;2.10;;
27305;SDS011;14792;50.886;6.468;2022-12-20T19:02:29;4.75;;;2.27;;
27305;SDS011;14792;50.886;6.468;2022-12-20T19:05:31;7.33;;;2.15;;
27305;SDS011;14792;50.886;6.468;2022-12-20T19:08:32;2.85;;;1.60;;
27305;SDS011;14792;50.886;6.468;2022-12-20T19:11:34;4.08;;;1.75;;
27305;SDS011;14792;50.886;6.468;2022-12-20T19:14:35;4.33;;;1.80;;
27305;SDS011;14792;50.886;6.468;2022-12-20T19:17:37;4.65;;;2.10;;
27305;SDS011;14792;50.886;6.468;2022-12-20T19:20:39;3.80;;;1.70;;
27305;SDS011;14792;50.886;6.468;2022-12-20T19:23:41;5.30;;;2.50;;
27305;SDS011;14792;50.886;6.468;2022-12-20T19:26:42;5.75;;;2.17;;
27305;SDS011;14792;50.886;6.468;2022-12-20T19:29:44;3.45;;;1.57;;
27305;SDS011;14792;50.886;6.468;2022-12-20T19:32:45;5.35;;;2.35;;
27305;SDS011;14792;50.886;6.468;2022-12-20T19:35:47;4.50;;;2.10;;
27305;SDS011;14792;50.886;6.468;2022-12-20T19:38:49;4.17;;;2.40;;
27305;SDS011;14792;50.886;6.468;2022-12-20T19:41:50;5.45;;;1.95;;
27305;SDS011;14792;50.886;6.468;2022-12-20T19:44:51;5.15;;;1.92;;
27305;SDS011;14792;50.886;6.468;2022-12-20T19:47:53;4.45;;;1.90;;
27305;SDS011;14792;50.886;6.468;2022-12-20T19:51:05;8.05;;;2.45;;
27305;SDS011;14792;50.886;6.468;2022-12-20T19:54:02;4.90;;;2.30;;